Pagrindinis puslapis
METAR-TAF:

METAR-TAF

Oro uostai :

Atka, Aliaska, Jungtinės Amerikos Valstijos

platuma: 52-13-13N, ilguma: 174-12-23W, Aukštis: 17 m

Dabartinis oras

Ataskaita buvo paskelbta 14 minutes, ne 10:56 UTC
Ramus vėjas
Temperatūra 2°C
Drėgmė 80%
Slėgis 1020 hPa
Matomumas: 16.1 km
Mažai debesys ne aukštis 2900 ft
Su prošvaistėmis ne aukštis 4000 ft
Apsiniaukę ne aukštis 6500 ft

METAR: PAAK 311056Z AUTO 00000KT 10SM FEW029 BKN040 OVC065 02/M01 A3011 RMK AO2 UPE24 SLP197 T00171011 FZRANO PNO $

Laikas: 03:10 (11:10 UTC)


TAF: trūkstamas

Orai ataskaitas ir orų prognozės (METAR, TAF).

turimą stotys yra geltonos ir raudonos taškus žemėlapyje.

Perkelti pele per norėdami pamatyti stoties vardą.

Tada spustelėkite, norėdami matyti oro stebėjimo ir prognozės.

Norėdami pakeisti žemėlapį: spustelėkite ant žalios mygtukų su juodo kryžiaus žemyn,; žalią mygtuką su brūkšneliu, jei norite nutolinti; arba žalių rodyklių gretimoms žemėlapius.


METAR-TAF: